Laureles, Texas
Current Conditions -  °F | °C
As of 12:08 PM on Friday 19 Dec 2014 (Local Time) from KHRL Reporting Station
Overcast Overcast  
Wind Chill: 70°   Ceiling: 900
Heat Index: 70°   Visibility: 10mi
Dew Point: 66°   Wind: 10mph
Humidity: 88%   Direction: 310°NW
Pressure: 29.99"   Gusts: NA
Location:  26.1784°N, 97.6678°W
Report Text: KHRL 191808Z 31009KT 10SM BKN009 BKN016 OVC039 21/19 A2999 RMK AO2 CIG 007V013
Loading
Personal Weather Stations






























Interactive Weather Map New forecast layout! Learn more

10-Day Weather Forecast

Advertisements
Track Severe Weather on mobile